sensor_id;sensor_type;location;lat;lon;timestamp;temperature;humidity
19906;DHT22;10115;50.906;4.438;2023-02-11T00:00:12;6.10;99.90
19906;DHT22;10115;50.906;4.438;2023-02-11T00:02:38;6.10;99.90
19906;DHT22;10115;50.906;4.438;2023-02-11T00:05:04;6.00;99.90
19906;DHT22;10115;50.906;4.438;2023-02-11T00:07:31;6.00;99.90
19906;DHT22;10115;50.906;4.438;2023-02-11T00:09:59;6.00;99.90
19906;DHT22;10115;50.906;4.438;2023-02-11T00:12:27;6.00;99.90
19906;DHT22;10115;50.906;4.438;2023-02-11T00:14:54;5.90;99.90
19906;DHT22;10115;50.906;4.438;2023-02-11T00:17:22;5.90;99.90
19906;DHT22;10115;50.906;4.438;2023-02-11T00:19:53;5.90;99.90
19906;DHT22;10115;50.906;4.438;2023-02-11T00:22:18;5.90;99.90
19906;DHT22;10115;50.906;4.438;2023-02-11T00:24:44;5.90;99.90
19906;DHT22;10115;50.906;4.438;2023-02-11T00:27:10;5.90;99.90
19906;DHT22;10115;50.906;4.438;2023-02-11T00:29:36;5.90;99.90
19906;DHT22;10115;50.906;4.438;2023-02-11T00:32:02;5.90;99.90
19906;DHT22;10115;50.906;4.438;2023-02-11T00:34:33;5.90;99.90
19906;DHT22;10115;50.906;4.438;2023-02-11T00:36:59;5.80;99.90
19906;DHT22;10115;50.906;4.438;2023-02-11T00:39:25;5.80;99.90
19906;DHT22;10115;50.906;4.438;2023-02-11T00:41:51;5.70;99.90
19906;DHT22;10115;50.906;4.438;2023-02-11T00:44:16;5.70;99.90
19906;DHT22;10115;50.906;4.438;2023-02-11T00:46:42;5.70;99.90
19906;DHT22;10115;50.906;4.438;2023-02-11T00:49:08;5.60;99.90
19906;DHT22;10115;50.906;4.438;2023-02-11T00:51:34;5.70;99.90
19906;DHT22;10115;50.906;4.438;2023-02-11T00:53:59;5.60;99.90
19906;DHT22;10115;50.906;4.438;2023-02-11T00:56:25;5.70;99.90
19906;DHT22;10115;50.906;4.438;2023-02-11T00:58:51;5.60;99.90
19906;DHT22;10115;50.906;4.438;2023-02-11T01:01:18;5.70;99.90
19906;DHT22;10115;50.906;4.438;2023-02-11T01:03:44;5.60;99.90
19906;DHT22;10115;50.906;4.438;2023-02-11T01:06:11;5.60;99.90
19906;DHT22;10115;50.906;4.438;2023-02-11T01:08:37;5.70;99.90
19906;DHT22;10115;50.906;4.438;2023-02-11T01:11:06;5.70;99.90
19906;DHT22;10115;50.906;4.438;2023-02-11T01:13:33;5.70;99.90
19906;DHT22;10115;50.906;4.438;2023-02-11T01:16:00;5.70;99.90
19906;DHT22;10115;50.906;4.438;2023-02-11T01:18:26;5.70;99.90
19906;DHT22;10115;50.906;4.438;2023-02-11T01:20:52;5.70;99.90
19906;DHT22;10115;50.906;4.438;2023-02-11T01:23:18;5.70;99.90
19906;DHT22;10115;50.906;4.438;2023-02-11T01:25:44;5.70;99.90
19906;DHT22;10115;50.906;4.438;2023-02-11T01:28:22;5.70;99.90
19906;DHT22;10115;50.906;4.438;2023-02-11T01:30:48;5.70;99.90
19906;DHT22;10115;50.906;4.438;2023-02-11T01:33:14;5.60;99.90
19906;DHT22;10115;50.906;4.438;2023-02-11T01:35:40;5.60;99.90
19906;DHT22;10115;50.906;4.438;2023-02-11T01:38:08;5.60;99.90
19906;DHT22;10115;50.906;4.438;2023-02-11T01:40:38;5.60;99.90
19906;DHT22;10115;50.906;4.438;2023-02-11T01:43:04;5.60;99.90
19906;DHT22;10115;50.906;4.438;2023-02-11T01:48:27;5.60;99.90
19906;DHT22;10115;50.906;4.438;2023-02-11T01:51:00;5.60;99.90
19906;DHT22;10115;50.906;4.438;2023-02-11T01:53:28;5.60;99.90
19906;DHT22;10115;50.906;4.438;2023-02-11T01:56:13;5.60;99.90
19906;DHT22;10115;50.906;4.438;2023-02-11T01:59:03;5.50;99.90
19906;DHT22;10115;50.906;4.438;2023-02-11T02:01:31;5.60;99.90
19906;DHT22;10115;50.906;4.438;2023-02-11T02:04:00;5.60;99.90
19906;DHT22;10115;50.906;4.438;2023-02-11T02:06:39;5.60;99.90
19906;DHT22;10115;50.906;4.438;2023-02-11T02:09:28;5.70;99.90
19906;DHT22;10115;50.906;4.438;2023-02-11T02:11:55;5.70;99.90
19906;DHT22;10115;50.906;4.438;2023-02-11T02:14:21;5.70;99.90
19906;DHT22;10115;50.906;4.438;2023-02-11T02:16:47;5.80;99.90
19906;DHT22;10115;50.906;4.438;2023-02-11T02:22:00;5.80;99.90
19906;DHT22;10115;50.906;4.438;2023-02-11T02:32:44;5.90;99.90
19906;DHT22;10115;50.906;4.438;2023-02-11T02:40:36;5.90;99.90
19906;DHT22;10115;50.906;4.438;2023-02-11T02:43:03;5.90;99.90
19906;DHT22;10115;50.906;4.438;2023-02-11T02:45:29;5.90;99.90
19906;DHT22;10115;50.906;4.438;2023-02-11T02:47:55;6.00;99.90
19906;DHT22;10115;50.906;4.438;2023-02-11T02:50:29;6.00;99.90
19906;DHT22;10115;50.906;4.438;2023-02-11T02:53:20;6.00;99.90
19906;DHT22;10115;50.906;4.438;2023-02-11T02:56:13;6.00;99.90
19906;DHT22;10115;50.906;4.438;2023-02-11T02:58:50;6.00;99.90
19906;DHT22;10115;50.906;4.438;2023-02-11T03:01:29;6.00;99.90
19906;DHT22;10115;50.906;4.438;2023-02-11T03:04:16;6.00;99.90
19906;DHT22;10115;50.906;4.438;2023-02-11T03:07:00;6.10;99.90
19906;DHT22;10115;50.906;4.438;2023-02-11T03:12:29;6.10;99.90
19906;DHT22;10115;50.906;4.438;2023-02-11T03:14:55;6.10;99.90
19906;DHT22;10115;50.906;4.438;2023-02-11T03:17:22;6.00;99.90
19906;DHT22;10115;50.906;4.438;2023-02-11T03:19:49;6.10;99.90
19906;DHT22;10115;50.906;4.438;2023-02-11T03:22:21;6.00;99.90
19906;DHT22;10115;50.906;4.438;2023-02-11T03:24:47;6.10;99.90
19906;DHT22;10115;50.906;4.438;2023-02-11T03:30:00;6.10;99.90
19906;DHT22;10115;50.906;4.438;2023-02-11T03:32:36;6.10;99.90
19906;DHT22;10115;50.906;4.438;2023-02-11T03:37:44;6.20;99.90
19906;DHT22;10115;50.906;4.438;2023-02-11T03:40:23;6.20;99.90
19906;DHT22;10115;50.906;4.438;2023-02-11T03:42:57;6.20;99.90
19906;DHT22;10115;50.906;4.438;2023-02-11T03:45:24;6.20;99.90
19906;DHT22;10115;50.906;4.438;2023-02-11T03:48:06;6.20;99.90
19906;DHT22;10115;50.906;4.438;2023-02-11T03:50:35;6.30;99.90
19906;DHT22;10115;50.906;4.438;2023-02-11T03:53:02;6.20;99.90
19906;DHT22;10115;50.906;4.438;2023-02-11T03:55:29;6.20;99.90
19906;DHT22;10115;50.906;4.438;2023-02-11T03:57:55;6.20;99.90
19906;DHT22;10115;50.906;4.438;2023-02-11T04:00:29;6.20;99.90
19906;DHT22;10115;50.906;4.438;2023-02-11T04:02:55;6.30;99.90
19906;DHT22;10115;50.906;4.438;2023-02-11T04:05:21;6.30;99.90
19906;DHT22;10115;50.906;4.438;2023-02-11T04:07:46;6.20;99.90
19906;DHT22;10115;50.906;4.438;2023-02-11T04:10:12;6.20;99.90
19906;DHT22;10115;50.906;4.438;2023-02-11T04:12:38;6.20;99.90
19906;DHT22;10115;50.906;4.438;2023-02-11T04:15:04;6.30;99.90
19906;DHT22;10115;50.906;4.438;2023-02-11T04:17:29;6.20;99.90
19906;DHT22;10115;50.906;4.438;2023-02-11T04:19:55;6.20;99.90
19906;DHT22;10115;50.906;4.438;2023-02-11T04:22:21;6.30;99.90
19906;DHT22;10115;50.906;4.438;2023-02-11T04:24:46;6.30;99.90
19906;DHT22;10115;50.906;4.438;2023-02-11T04:27:12;6.30;99.90
19906;DHT22;10115;50.906;4.438;2023-02-11T04:29:37;6.30;99.90
19906;DHT22;10115;50.906;4.438;2023-02-11T04:32:03;6.30;99.90
19906;DHT22;10115;50.906;4.438;2023-02-11T04:34:29;6.30;99.90
19906;DHT22;10115;50.906;4.438;2023-02-11T04:36:55;6.30;99.90
19906;DHT22;10115;50.906;4.438;2023-02-11T04:39:20;6.30;99.90
19906;DHT22;10115;50.906;4.438;2023-02-11T04:41:46;6.30;99.90
19906;DHT22;10115;50.906;4.438;2023-02-11T04:44:11;6.30;99.90
19906;DHT22;10115;50.906;4.438;2023-02-11T04:46:37;6.30;99.90
19906;DHT22;10115;50.906;4.438;2023-02-11T04:49:03;6.30;99.90
19906;DHT22;10115;50.906;4.438;2023-02-11T04:51:28;6.40;99.90
19906;DHT22;10115;50.906;4.438;2023-02-11T04:53:54;6.40;99.90
19906;DHT22;10115;50.906;4.438;2023-02-11T04:56:20;6.40;99.90
19906;DHT22;10115;50.906;4.438;2023-02-11T04:58:45;6.40;99.90
19906;DHT22;10115;50.906;4.438;2023-02-11T05:01:14;6.30;99.90
19906;DHT22;10115;50.906;4.438;2023-02-11T05:03:40;6.30;99.90
19906;DHT22;10115;50.906;4.438;2023-02-11T05:06:08;6.40;99.90
19906;DHT22;10115;50.906;4.438;2023-02-11T05:08:34;6.30;99.90
19906;DHT22;10115;50.906;4.438;2023-02-11T05:10:59;6.30;99.90
19906;DHT22;10115;50.906;4.438;2023-02-11T05:13:27;6.30;99.90
19906;DHT22;10115;50.906;4.438;2023-02-11T05:15:53;6.30;99.90
19906;DHT22;10115;50.906;4.438;2023-02-11T05:18:20;6.30;99.90
19906;DHT22;10115;50.906;4.438;2023-02-11T05:20:45;6.30;99.90
19906;DHT22;10115;50.906;4.438;2023-02-11T05:23:11;6.30;99.90
19906;DHT22;10115;50.906;4.438;2023-02-11T05:25:37;6.30;99.90
19906;DHT22;10115;50.906;4.438;2023-02-11T05:28:04;6.40;99.90
19906;DHT22;10115;50.906;4.438;2023-02-11T05:30:30;6.50;99.90
19906;DHT22;10115;50.906;4.438;2023-02-11T05:32:56;6.50;99.90
19906;DHT22;10115;50.906;4.438;2023-02-11T05:35:22;6.40;99.90
19906;DHT22;10115;50.906;4.438;2023-02-11T05:37:48;6.50;99.90
19906;DHT22;10115;50.906;4.438;2023-02-11T05:40:14;6.50;99.90
19906;DHT22;10115;50.906;4.438;2023-02-11T05:42:40;6.50;99.90
19906;DHT22;10115;50.906;4.438;2023-02-11T05:45:05;6.50;99.90
19906;DHT22;10115;50.906;4.438;2023-02-11T05:47:31;6.40;99.90
19906;DHT22;10115;50.906;4.438;2023-02-11T05:49:57;6.40;99.90
19906;DHT22;10115;50.906;4.438;2023-02-11T05:52:23;6.40;99.90
19906;DHT22;10115;50.906;4.438;2023-02-11T05:54:49;6.40;99.90
19906;DHT22;10115;50.906;4.438;2023-02-11T05:57:15;6.40;99.90
19906;DHT22;10115;50.906;4.438;2023-02-11T05:59:41;6.40;99.90
19906;DHT22;10115;50.906;4.438;2023-02-11T06:02:07;6.40;99.90
19906;DHT22;10115;50.906;4.438;2023-02-11T06:04:33;6.30;99.90
19906;DHT22;10115;50.906;4.438;2023-02-11T06:06:59;6.30;99.90
19906;DHT22;10115;50.906;4.438;2023-02-11T06:09:25;6.30;99.90
19906;DHT22;10115;50.906;4.438;2023-02-11T06:11:51;6.30;99.90
19906;DHT22;10115;50.906;4.438;2023-02-11T06:14:17;6.30;99.90
19906;DHT22;10115;50.906;4.438;2023-02-11T06:16:43;6.30;99.90
19906;DHT22;10115;50.906;4.438;2023-02-11T06:19:08;6.40;99.90
19906;DHT22;10115;50.906;4.438;2023-02-11T06:21:34;6.30;99.90
19906;DHT22;10115;50.906;4.438;2023-02-11T06:24:00;6.30;99.90
19906;DHT22;10115;50.906;4.438;2023-02-11T06:26:25;6.40;99.90
19906;DHT22;10115;50.906;4.438;2023-02-11T06:28:51;6.40;99.90
19906;DHT22;10115;50.906;4.438;2023-02-11T06:31:17;6.30;99.90
19906;DHT22;10115;50.906;4.438;2023-02-11T06:33:43;6.40;99.90
19906;DHT22;10115;50.906;4.438;2023-02-11T06:36:16;6.40;99.90
19906;DHT22;10115;50.906;4.438;2023-02-11T06:38:42;6.40;99.90
19906;DHT22;10115;50.906;4.438;2023-02-11T06:41:10;6.40;99.90
19906;DHT22;10115;50.906;4.438;2023-02-11T06:43:36;6.40;99.90
19906;DHT22;10115;50.906;4.438;2023-02-11T06:46:01;6.30;99.90
19906;DHT22;10115;50.906;4.438;2023-02-11T06:48:27;6.30;99.90
19906;DHT22;10115;50.906;4.438;2023-02-11T06:50:52;6.40;99.90
19906;DHT22;10115;50.906;4.438;2023-02-11T06:53:18;6.40;99.90
19906;DHT22;10115;50.906;4.438;2023-02-11T06:55:44;6.40;99.90
19906;DHT22;10115;50.906;4.438;2023-02-11T06:58:09;6.50;99.90
19906;DHT22;10115;50.906;4.438;2023-02-11T07:00:36;6.50;99.90
19906;DHT22;10115;50.906;4.438;2023-02-11T07:03:02;6.50;99.90
19906;DHT22;10115;50.906;4.438;2023-02-11T07:05:27;6.50;99.90
19906;DHT22;10115;50.906;4.438;2023-02-11T07:07:53;6.50;99.90
19906;DHT22;10115;50.906;4.438;2023-02-11T07:10:18;6.50;99.90
19906;DHT22;10115;50.906;4.438;2023-02-11T07:12:44;6.50;99.90
19906;DHT22;10115;50.906;4.438;2023-02-11T07:15:10;6.50;99.90
19906;DHT22;10115;50.906;4.438;2023-02-11T07:17:35;6.50;99.90
19906;DHT22;10115;50.906;4.438;2023-02-11T07:20:01;6.50;99.90
19906;DHT22;10115;50.906;4.438;2023-02-11T07:22:27;6.60;99.90
19906;DHT22;10115;50.906;4.438;2023-02-11T07:24:53;6.60;99.90
19906;DHT22;10115;50.906;4.438;2023-02-11T07:27:18;6.70;99.90
19906;DHT22;10115;50.906;4.438;2023-02-11T07:29:44;6.80;99.90
19906;DHT22;10115;50.906;4.438;2023-02-11T07:32:18;6.80;99.90
19906;DHT22;10115;50.906;4.438;2023-02-11T07:34:43;6.80;99.90
19906;DHT22;10115;50.906;4.438;2023-02-11T07:37:09;6.70;99.90
19906;DHT22;10115;50.906;4.438;2023-02-11T07:39:35;6.70;99.90
19906;DHT22;10115;50.906;4.438;2023-02-11T07:42:01;6.70;99.90
19906;DHT22;10115;50.906;4.438;2023-02-11T07:44:27;6.80;99.90
19906;DHT22;10115;50.906;4.438;2023-02-11T07:47:06;6.70;99.90
19906;DHT22;10115;50.906;4.438;2023-02-11T07:49:36;6.70;99.90
19906;DHT22;10115;50.906;4.438;2023-02-11T07:52:04;6.70;99.90
19906;DHT22;10115;50.906;4.438;2023-02-11T07:54:29;6.80;99.90
19906;DHT22;10115;50.906;4.438;2023-02-11T07:56:55;6.80;99.90
19906;DHT22;10115;50.906;4.438;2023-02-11T07:59:21;6.80;99.90
19906;DHT22;10115;50.906;4.438;2023-02-11T08:01:49;6.80;99.90
19906;DHT22;10115;50.906;4.438;2023-02-11T08:04:16;6.80;99.90
19906;DHT22;10115;50.906;4.438;2023-02-11T08:06:43;6.80;99.90
19906;DHT22;10115;50.906;4.438;2023-02-11T08:09:13;6.80;99.90
19906;DHT22;10115;50.906;4.438;2023-02-11T08:11:40;6.90;99.90
19906;DHT22;10115;50.906;4.438;2023-02-11T08:14:07;6.90;99.90
19906;DHT22;10115;50.906;4.438;2023-02-11T08:16:34;6.80;99.90
19906;DHT22;10115;50.906;4.438;2023-02-11T08:19:03;6.80;99.90
19906;DHT22;10115;50.906;4.438;2023-02-11T08:21:29;6.80;99.90
19906;DHT22;10115;50.906;4.438;2023-02-11T08:23:55;6.80;99.90
19906;DHT22;10115;50.906;4.438;2023-02-11T08:26:26;6.80;99.90
19906;DHT22;10115;50.906;4.438;2023-02-11T08:28:54;6.90;99.90
19906;DHT22;10115;50.906;4.438;2023-02-11T08:31:33;6.80;99.90
19906;DHT22;10115;50.906;4.438;2023-02-11T08:33:59;6.90;99.90
19906;DHT22;10115;50.906;4.438;2023-02-11T08:36:32;7.00;99.90
19906;DHT22;10115;50.906;4.438;2023-02-11T08:39:00;7.00;99.90
19906;DHT22;10115;50.906;4.438;2023-02-11T08:41:33;6.90;99.90
19906;DHT22;10115;50.906;4.438;2023-02-11T08:43:59;7.00;99.90
19906;DHT22;10115;50.906;4.438;2023-02-11T08:46:25;7.00;99.90
19906;DHT22;10115;50.906;4.438;2023-02-11T08:48:52;6.90;99.90
19906;DHT22;10115;50.906;4.438;2023-02-11T08:51:23;7.00;99.90
19906;DHT22;10115;50.906;4.438;2023-02-11T08:53:50;7.00;99.90
19906;DHT22;10115;50.906;4.438;2023-02-11T08:56:17;6.90;99.90
19906;DHT22;10115;50.906;4.438;2023-02-11T08:58:43;6.90;99.90
19906;DHT22;10115;50.906;4.438;2023-02-11T09:01:11;6.90;99.90
19906;DHT22;10115;50.906;4.438;2023-02-11T09:03:37;6.90;99.90
19906;DHT22;10115;50.906;4.438;2023-02-11T09:06:07;7.00;99.90
19906;DHT22;10115;50.906;4.438;2023-02-11T09:08:38;7.00;99.90
19906;DHT22;10115;50.906;4.438;2023-02-11T09:11:04;7.00;99.90
19906;DHT22;10115;50.906;4.438;2023-02-11T09:13:31;7.00;99.90
19906;DHT22;10115;50.906;4.438;2023-02-11T09:15:57;7.00;99.90
19906;DHT22;10115;50.906;4.438;2023-02-11T09:18:24;7.00;99.90
19906;DHT22;10115;50.906;4.438;2023-02-11T09:20:49;7.10;99.90
19906;DHT22;10115;50.906;4.438;2023-02-11T09:23:15;7.20;99.90
19906;DHT22;10115;50.906;4.438;2023-02-11T09:25:41;7.20;99.90
19906;DHT22;10115;50.906;4.438;2023-02-11T09:28:08;7.20;99.90
19906;DHT22;10115;50.906;4.438;2023-02-11T09:30:36;7.20;99.90
19906;DHT22;10115;50.906;4.438;2023-02-11T09:33:02;7.20;99.90
19906;DHT22;10115;50.906;4.438;2023-02-11T09:35:28;7.20;99.90
19906;DHT22;10115;50.906;4.438;2023-02-11T09:37:56;7.20;99.90
19906;DHT22;10115;50.906;4.438;2023-02-11T09:40:21;7.30;99.90
19906;DHT22;10115;50.906;4.438;2023-02-11T09:43:13;7.30;99.90
19906;DHT22;10115;50.906;4.438;2023-02-11T09:45:41;7.40;99.90
19906;DHT22;10115;50.906;4.438;2023-02-11T09:48:16;7.40;99.90
19906;DHT22;10115;50.906;4.438;2023-02-11T09:50:54;7.60;99.90
19906;DHT22;10115;50.906;4.438;2023-02-11T09:53:25;7.60;99.90
19906;DHT22;10115;50.906;4.438;2023-02-11T09:55:59;7.60;99.90
19906;DHT22;10115;50.906;4.438;2023-02-11T10:03:51;7.60;99.90
19906;DHT22;10115;50.906;4.438;2023-02-11T10:06:47;7.60;99.90
19906;DHT22;10115;50.906;4.438;2023-02-11T10:09:35;7.70;99.90
19906;DHT22;10115;50.906;4.438;2023-02-11T10:20:56;7.80;99.90
19906;DHT22;10115;50.906;4.438;2023-02-11T10:23:35;7.80;99.90
19906;DHT22;10115;50.906;4.438;2023-02-11T10:26:07;7.80;99.90
19906;DHT22;10115;50.906;4.438;2023-02-11T10:28:36;7.80;99.90
19906;DHT22;10115;50.906;4.438;2023-02-11T10:31:16;7.80;99.90
19906;DHT22;10115;50.906;4.438;2023-02-11T10:34:00;7.80;99.90
19906;DHT22;10115;50.906;4.438;2023-02-11T10:36:34;7.70;99.90
19906;DHT22;10115;50.906;4.438;2023-02-11T10:39:19;7.80;99.90
19906;DHT22;10115;50.906;4.438;2023-02-11T10:41:49;7.90;99.90
19906;DHT22;10115;50.906;4.438;2023-02-11T10:44:32;7.90;99.90
19906;DHT22;10115;50.906;4.438;2023-02-11T10:47:10;7.90;99.90
19906;DHT22;10115;50.906;4.438;2023-02-11T10:49:44;7.80;99.90
19906;DHT22;10115;50.906;4.438;2023-02-11T10:57:57;8.00;99.90
19906;DHT22;10115;50.906;4.438;2023-02-11T11:00:41;8.00;99.90
19906;DHT22;10115;50.906;4.438;2023-02-11T11:03:19;8.00;99.90
19906;DHT22;10115;50.906;4.438;2023-02-11T11:06:06;8.00;99.90
19906;DHT22;10115;50.906;4.438;2023-02-11T11:11:12;8.00;99.90
19906;DHT22;10115;50.906;4.438;2023-02-11T11:16:35;8.10;99.90
19906;DHT22;10115;50.906;4.438;2023-02-11T11:24:02;8.00;99.90
19906;DHT22;10115;50.906;4.438;2023-02-11T11:26:52;8.00;99.90
19906;DHT22;10115;50.906;4.438;2023-02-11T11:29:44;8.10;99.90
19906;DHT22;10115;50.906;4.438;2023-02-11T11:32:31;8.10;99.90
19906;DHT22;10115;50.906;4.438;2023-02-11T11:35:03;8.10;99.90
19906;DHT22;10115;50.906;4.438;2023-02-11T11:37:37;8.10;99.90
19906;DHT22;10115;50.906;4.438;2023-02-11T11:40:09;8.20;99.90
19906;DHT22;10115;50.906;4.438;2023-02-11T11:42:37;8.10;99.90
19906;DHT22;10115;50.906;4.438;2023-02-11T11:50:48;8.10;99.90
19906;DHT22;10115;50.906;4.438;2023-02-11T11:53:44;8.20;99.90
19906;DHT22;10115;50.906;4.438;2023-02-11T11:56:20;8.20;99.90
19906;DHT22;10115;50.906;4.438;2023-02-11T11:58:46;8.20;99.90
19906;DHT22;10115;50.906;4.438;2023-02-11T12:23:10;8.50;99.90
19906;DHT22;10115;50.906;4.438;2023-02-11T12:25:42;8.50;99.90
19906;DHT22;10115;50.906;4.438;2023-02-11T12:37:18;8.50;99.90
19906;DHT22;10115;50.906;4.438;2023-02-11T12:42:46;8.50;99.90
19906;DHT22;10115;50.906;4.438;2023-02-11T12:57:11;8.50;99.90
19906;DHT22;10115;50.906;4.438;2023-02-11T13:02:48;8.70;99.90
19906;DHT22;10115;50.906;4.438;2023-02-11T13:05:42;8.70;99.90
19906;DHT22;10115;50.906;4.438;2023-02-11T13:08:16;8.80;99.90
19906;DHT22;10115;50.906;4.438;2023-02-11T13:10:49;8.70;99.90
19906;DHT22;10115;50.906;4.438;2023-02-11T13:13:22;8.70;99.90
19906;DHT22;10115;50.906;4.438;2023-02-11T13:16:11;8.70;99.90
19906;DHT22;10115;50.906;4.438;2023-02-11T13:26:59;8.90;99.90
19906;DHT22;10115;50.906;4.438;2023-02-11T13:29:38;8.80;99.90
19906;DHT22;10115;50.906;4.438;2023-02-11T13:32:08;8.60;99.90
19906;DHT22;10115;50.906;4.438;2023-02-11T13:39:58;8.70;99.90
19906;DHT22;10115;50.906;4.438;2023-02-11T13:42:25;8.80;99.90
19906;DHT22;10115;50.906;4.438;2023-02-11T13:44:51;8.70;99.90
19906;DHT22;10115;50.906;4.438;2023-02-11T13:47:32;8.70;99.90
19906;DHT22;10115;50.906;4.438;2023-02-11T13:50:00;8.70;99.90
19906;DHT22;10115;50.906;4.438;2023-02-11T13:52:36;8.70;99.90
19906;DHT22;10115;50.906;4.438;2023-02-11T13:55:08;8.70;99.90
19906;DHT22;10115;50.906;4.438;2023-02-11T13:57:40;8.80;99.90
19906;DHT22;10115;50.906;4.438;2023-02-11T14:00:41;8.80;99.90
19906;DHT22;10115;50.906;4.438;2023-02-11T14:03:33;8.80;99.90
19906;DHT22;10115;50.906;4.438;2023-02-11T14:12:22;8.70;99.90
19906;DHT22;10115;50.906;4.438;2023-02-11T14:17:32;8.70;99.90
19906;DHT22;10115;50.906;4.438;2023-02-11T14:19:59;8.80;99.90
19906;DHT22;10115;50.906;4.438;2023-02-11T14:22:39;8.80;99.90
19906;DHT22;10115;50.906;4.438;2023-02-11T14:25:19;8.80;99.90
19906;DHT22;10115;50.906;4.438;2023-02-11T14:33:30;8.90;99.90
19906;DHT22;10115;50.906;4.438;2023-02-11T14:41:28;8.90;99.90
19906;DHT22;10115;50.906;4.438;2023-02-11T14:43:57;8.90;99.90
19906;DHT22;10115;50.906;4.438;2023-02-11T14:46:25;8.80;99.90
19906;DHT22;10115;50.906;4.438;2023-02-11T14:49:00;8.90;99.90
19906;DHT22;10115;50.906;4.438;2023-02-11T14:51:33;8.80;99.90
19906;DHT22;10115;50.906;4.438;2023-02-11T14:54:08;8.80;99.90
19906;DHT22;10115;50.906;4.438;2023-02-11T14:56:37;8.80;99.90
19906;DHT22;10115;50.906;4.438;2023-02-11T14:59:12;8.80;99.90
19906;DHT22;10115;50.906;4.438;2023-02-11T15:01:41;8.80;99.90
19906;DHT22;10115;50.906;4.438;2023-02-11T15:04:28;8.90;99.90
19906;DHT22;10115;50.906;4.438;2023-02-11T15:06:55;8.90;99.90
19906;DHT22;10115;50.906;4.438;2023-02-11T15:09:45;8.90;99.90
19906;DHT22;10115;50.906;4.438;2023-02-11T15:12:21;8.90;99.90
19906;DHT22;10115;50.906;4.438;2023-02-11T15:14:50;8.90;99.90
19906;DHT22;10115;50.906;4.438;2023-02-11T15:17:23;8.90;99.90
19906;DHT22;10115;50.906;4.438;2023-02-11T15:19:53;8.90;99.90
19906;DHT22;10115;50.906;4.438;2023-02-11T15:22:28;8.90;99.90
19906;DHT22;10115;50.906;4.438;2023-02-11T15:25:17;8.90;99.90
19906;DHT22;10115;50.906;4.438;2023-02-11T15:27:49;8.90;99.90
19906;DHT22;10115;50.906;4.438;2023-02-11T15:32:48;9.00;99.90
19906;DHT22;10115;50.906;4.438;2023-02-11T15:35:15;9.00;99.90
19906;DHT22;10115;50.906;4.438;2023-02-11T15:37:43;9.00;99.90
19906;DHT22;10115;50.906;4.438;2023-02-11T15:40:18;9.00;99.90
19906;DHT22;10115;50.906;4.438;2023-02-11T15:45:37;8.90;99.90
19906;DHT22;10115;50.906;4.438;2023-02-11T15:48:24;9.00;99.90
19906;DHT22;10115;50.906;4.438;2023-02-11T15:51:37;9.00;99.90
19906;DHT22;10115;50.906;4.438;2023-02-11T15:53:48;9.00;99.90
19906;DHT22;10115;50.906;4.438;2023-02-11T15:58:52;8.90;99.90
19906;DHT22;10115;50.906;4.438;2023-02-11T16:01:34;8.90;99.90
19906;DHT22;10115;50.906;4.438;2023-02-11T16:04:02;8.80;99.90
19906;DHT22;10115;50.906;4.438;2023-02-11T16:06:41;8.80;99.90
19906;DHT22;10115;50.906;4.438;2023-02-11T16:11:50;8.80;99.90
19906;DHT22;10115;50.906;4.438;2023-02-11T16:19:31;8.90;99.90
19906;DHT22;10115;50.906;4.438;2023-02-11T16:22:00;8.90;99.90
19906;DHT22;10115;50.906;4.438;2023-02-11T16:24:29;8.90;99.90
19906;DHT22;10115;50.906;4.438;2023-02-11T16:27:01;8.90;99.90
19906;DHT22;10115;50.906;4.438;2023-02-11T16:29:30;8.90;99.90
19906;DHT22;10115;50.906;4.438;2023-02-11T16:32:15;8.90;99.90
19906;DHT22;10115;50.906;4.438;2023-02-11T16:34:41;8.90;99.90
19906;DHT22;10115;50.906;4.438;2023-02-11T16:37:06;8.90;99.90
19906;DHT22;10115;50.906;4.438;2023-02-11T16:39:32;8.90;99.90
19906;DHT22;10115;50.906;4.438;2023-02-11T16:41:59;8.90;99.90
19906;DHT22;10115;50.906;4.438;2023-02-11T16:44:25;8.90;99.90
19906;DHT22;10115;50.906;4.438;2023-02-11T16:46:51;8.90;99.90
19906;DHT22;10115;50.906;4.438;2023-02-11T16:49:24;8.90;99.90
19906;DHT22;10115;50.906;4.438;2023-02-11T16:51:52;8.90;99.90
19906;DHT22;10115;50.906;4.438;2023-02-11T16:54:21;8.80;99.90
19906;DHT22;10115;50.906;4.438;2023-02-11T16:56:47;8.90;99.90
19906;DHT22;10115;50.906;4.438;2023-02-11T16:59:13;8.90;99.90
19906;DHT22;10115;50.906;4.438;2023-02-11T17:01:40;9.00;99.90
19906;DHT22;10115;50.906;4.438;2023-02-11T17:04:19;9.00;99.90
19906;DHT22;10115;50.906;4.438;2023-02-11T17:06:45;9.10;99.90
19906;DHT22;10115;50.906;4.438;2023-02-11T17:09:24;9.20;99.90
19906;DHT22;10115;50.906;4.438;2023-02-11T17:11:50;9.00;99.90
19906;DHT22;10115;50.906;4.438;2023-02-11T17:14:17;9.00;99.90
19906;DHT22;10115;50.906;4.438;2023-02-11T17:16:43;8.90;99.90
19906;DHT22;10115;50.906;4.438;2023-02-11T17:19:15;8.80;99.90
19906;DHT22;10115;50.906;4.438;2023-02-11T17:21:42;8.80;99.90
19906;DHT22;10115;50.906;4.438;2023-02-11T17:24:08;8.70;99.90
19906;DHT22;10115;50.906;4.438;2023-02-11T17:26:33;8.70;99.90
19906;DHT22;10115;50.906;4.438;2023-02-11T17:29:03;8.70;99.90
19906;DHT22;10115;50.906;4.438;2023-02-11T17:31:29;8.60;99.90
19906;DHT22;10115;50.906;4.438;2023-02-11T17:33:54;8.60;99.90
19906;DHT22;10115;50.906;4.438;2023-02-11T17:36:20;8.60;99.90
19906;DHT22;10115;50.906;4.438;2023-02-11T17:38:49;8.60;99.90
19906;DHT22;10115;50.906;4.438;2023-02-11T17:41:16;8.60;99.90
19906;DHT22;10115;50.906;4.438;2023-02-11T17:43:42;8.60;99.90
19906;DHT22;10115;50.906;4.438;2023-02-11T17:46:08;8.60;99.90
19906;DHT22;10115;50.906;4.438;2023-02-11T17:48:36;8.60;99.90
19906;DHT22;10115;50.906;4.438;2023-02-11T17:51:03;8.60;99.90
19906;DHT22;10115;50.906;4.438;2023-02-11T17:53:29;8.60;99.90
19906;DHT22;10115;50.906;4.438;2023-02-11T17:55:55;8.60;99.90
19906;DHT22;10115;50.906;4.438;2023-02-11T17:58:22;8.60;99.90
19906;DHT22;10115;50.906;4.438;2023-02-11T18:00:48;8.60;99.90
19906;DHT22;10115;50.906;4.438;2023-02-11T18:03:14;8.60;99.90
19906;DHT22;10115;50.906;4.438;2023-02-11T18:05:42;8.60;99.90
19906;DHT22;10115;50.906;4.438;2023-02-11T18:08:08;8.60;99.90
19906;DHT22;10115;50.906;4.438;2023-02-11T18:10:33;8.60;99.90
19906;DHT22;10115;50.906;4.438;2023-02-11T18:13:00;8.60;99.90
19906;DHT22;10115;50.906;4.438;2023-02-11T18:15:26;8.60;99.90
19906;DHT22;10115;50.906;4.438;2023-02-11T18:17:52;8.60;99.90
19906;DHT22;10115;50.906;4.438;2023-02-11T18:20:17;8.60;99.90
19906;DHT22;10115;50.906;4.438;2023-02-11T18:22:43;8.60;99.90
19906;DHT22;10115;50.906;4.438;2023-02-11T18:25:13;8.60;99.90
19906;DHT22;10115;50.906;4.438;2023-02-11T18:27:39;8.60;99.90
19906;DHT22;10115;50.906;4.438;2023-02-11T18:30:06;8.60;99.90
19906;DHT22;10115;50.906;4.438;2023-02-11T18:32:32;8.60;99.90
19906;DHT22;10115;50.906;4.438;2023-02-11T18:34:57;8.60;99.90
19906;DHT22;10115;50.906;4.438;2023-02-11T18:37:23;8.60;99.90
19906;DHT22;10115;50.906;4.438;2023-02-11T18:39:50;8.70;99.90
19906;DHT22;10115;50.906;4.438;2023-02-11T18:42:16;8.70;99.90